Time;durP1;ratioP1;P1;durP2;ratioP2;P2;SDS_P1;SDS_P2;PMS_P1;PMS_P2;Temp;Humidity;BMP_temperature;BMP_pressure;BME280_temperature;BME280_humidity;BME280_pressure;Samples;Min_cycle;Max_cycle;Signal;HPM_P1;HPM_P2
2021/10/29 00:01:06;;;;;;;0.50;0.50;;;;;;;9.46;92.17;101036.31;5053007;28;20454;-72
2021/10/29 00:03:32;;;;;;;1.47;1.40;;;;;;;9.41;92.49;101043.66;5053014;28;20814;-72
2021/10/29 00:05:59;;;;;;;0.40;0.30;;;;;;;9.41;92.62;101046.38;5052888;28;20442;-71
2021/10/29 00:08:25;;;;;;;11.27;9.67;;;;;;;9.42;92.23;101037.16;5052799;28;20442;-72
2021/10/29 00:10:52;;;;;;;0.40;0.30;;;;;;;9.40;92.11;101039.34;5052813;28;20449;-72
2021/10/29 00:13:19;;;;;;;0.50;0.50;;;;;;;9.34;90.95;101031.28;5054982;28;20505;-72
2021/10/29 00:15:46;;;;;;;0.40;0.30;;;;;;;9.27;90.40;101030.78;5056599;28;20994;-72
2021/10/29 00:18:13;;;;;;;2.73;2.47;;;;;;;9.23;90.14;101034.34;5056832;28;20442;-72
2021/10/29 00:20:39;;;;;;;0.40;0.30;;;;;;;9.23;90.98;101024.31;5056818;28;20446;-72
2021/10/29 00:23:06;;;;;;;0.40;0.40;;;;;;;9.17;90.92;101020.06;5056761;28;20446;-72
2021/10/29 00:25:32;;;;;;;0.40;0.30;;;;;;;9.10;90.68;101028.47;5056772;28;20438;-72
2021/10/29 00:27:59;;;;;;;0.40;0.30;;;;;;;9.06;90.00;101022.00;5056307;28;20466;-72
2021/10/29 00:30:26;;;;;;;0.40;0.30;;;;;;;9.02;90.42;101022.84;5056334;28;20446;-72
2021/10/29 00:32:53;;;;;;;0.40;0.20;;;;;;;8.95;91.31;101025.88;5056498;28;20442;-72
2021/10/29 00:35:19;;;;;;;0.40;0.30;;;;;;;8.96;92.38;101013.16;5056213;28;20790;-72
2021/10/29 00:37:46;;;;;;;0.40;0.30;;;;;;;8.99;92.65;101008.00;5056129;28;20971;-72
2021/10/29 00:40:14;;;;;;;0.40;0.30;;;;;;;9.00;92.92;101006.13;5056314;28;20438;-72
2021/10/29 00:42:41;;;;;;;0.40;0.30;;;;;;;8.97;93.71;100998.56;5056425;28;20474;-72
2021/10/29 00:45:10;;;;;;;4.33;3.83;;;;;;;8.97;93.54;101012.06;5056337;28;20438;-72
2021/10/29 00:47:38;;;;;;;0.70;0.70;;;;;;;8.98;93.65;101013.69;5056333;28;20458;-72
2021/10/29 00:50:05;;;;;;;0.40;0.30;;;;;;;8.93;93.87;101019.13;5056280;28;20442;-72
2021/10/29 00:52:32;;;;;;;0.40;0.30;;;;;;;8.93;94.40;101019.91;5056296;28;20537;-72
2021/10/29 00:55:00;;;;;;;0.40;0.30;;;;;;;8.89;94.16;101012.66;5056151;28;20536;-72
2021/10/29 00:57:26;;;;;;;0.40;0.30;;;;;;;8.84;94.24;101022.41;5055804;28;21011;-72
2021/10/29 00:59:53;;;;;;;0.40;0.30;;;;;;;8.85;94.17;101020.50;5055847;28;20438;-72
2021/10/29 01:02:19;;;;;;;0.50;0.50;;;;;;;8.81;94.06;101022.16;5056098;28;20465;-72
2021/10/29 01:04:48;;;;;;;0.40;0.20;;;;;;;8.75;94.18;101005.16;5056029;28;20434;-72
2021/10/29 01:07:15;;;;;;;0.40;0.30;;;;;;;8.74;93.76;101006.25;5055627;28;20975;-71
2021/10/29 01:09:41;;;;;;;0.40;0.30;;;;;;;8.64;93.12;101011.72;5068035;28;20461;-72
2021/10/29 01:12:08;;;;;;;1.33;1.27;;;;;;;8.49;93.93;100999.06;5075915;28;20441;-72
2021/10/29 01:14:35;;;;;;;0.40;0.20;;;;;;;8.45;93.94;101003.41;5075817;28;20504;-71
2021/10/29 01:17:02;;;;;;;0.50;0.30;;;;;;;8.39;93.68;101001.81;5075458;28;21005;-71
2021/10/29 01:19:33;;;;;;;0.40;0.30;;;;;;;8.42;93.48;101003.19;5075799;28;20456;-72
2021/10/29 01:22:01;;;;;;;0.40;0.30;;;;;;;8.34;92.76;100994.53;5075824;28;20426;-71
2021/10/29 01:24:27;;;;;;;1.43;1.33;;;;;;;8.19;93.66;100994.59;5075237;28;20437;-72
2021/10/29 01:26:54;;;;;;;0.80;0.73;;;;;;;8.22;93.43;100988.63;5075607;28;20469;-71
2021/10/29 01:29:20;;;;;;;1.70;1.60;;;;;;;8.23;92.91;100986.72;5075588;28;20438;-71
2021/10/29 01:31:47;;;;;;;0.50;0.50;;;;;;;8.17;92.64;100995.94;5075537;28;20472;-71
2021/10/29 01:34:14;;;;;;;3.90;3.60;;;;;;;8.12;93.69;100985.16;5075416;28;20572;-71
2021/10/29 01:36:41;;;;;;;0.40;0.30;;;;;;;8.12;94.96;100988.66;5075130;28;20848;-71
2021/10/29 01:39:08;;;;;;;0.40;0.30;;;;;;;8.12;95.28;100988.66;5075415;28;20449;-72
2021/10/29 01:41:35;;;;;;;0.40;0.30;;;;;;;8.15;95.27;100985.44;5075413;28;20829;-71
2021/10/29 01:44:02;;;;;;;0.40;0.30;;;;;;;8.14;95.51;100991.88;5075365;28;20440;-71
2021/10/29 01:46:29;;;;;;;3.47;3.23;;;;;;;8.10;96.06;100993.50;5074880;28;20469;-71
2021/10/29 01:48:55;;;;;;;0.40;0.30;;;;;;;8.13;95.86;100995.66;5074942;28;20457;-71
2021/10/29 01:51:22;;;;;;;0.40;0.30;;;;;;;8.11;95.70;100995.16;5074945;28;20465;-71
2021/10/29 01:53:48;;;;;;;0.40;0.30;;;;;;;8.13;95.74;100990.28;5075052;28;20488;-72
2021/10/29 01:56:16;;;;;;;0.40;0.30;;;;;;;8.06;95.79;100993.28;5075088;28;20469;-72
2021/10/29 01:58:43;;;;;;;0.40;0.30;;;;;;;8.01;96.53;100989.75;5074737;28;20943;-72
2021/10/29 02:01:10;;;;;;;0.40;0.30;;;;;;;8.02;96.38;100994.09;5074811;28;20445;-72
2021/10/29 02:03:36;;;;;;;2.00;1.90;;;;;;;8.03;96.14;100985.72;5075002;28;20449;-72
2021/10/29 02:06:04;;;;;;;0.40;0.30;;;;;;;7.97;96.72;100986.81;5074825;28;20441;-72
2021/10/29 02:08:31;;;;;;;0.40;0.30;;;;;;;7.97;96.31;100986.81;5074830;28;20441;-72
2021/10/29 02:10:57;;;;;;;0.40;0.30;;;;;;;7.96;95.96;100987.06;5074736;28;20498;-72
2021/10/29 02:13:26;;;;;;;0.40;0.33;;;;;;;7.84;95.73;100984.69;5074388;28;20444;-72
2021/10/29 02:15:53;;;;;;;0.40;0.30;;;;;;;7.77;95.29;100976.88;5074637;28;20452;-72
2021/10/29 02:18:22;;;;;;;0.40;0.30;;;;;;;7.75;95.67;100975.53;5074299;28;20966;-72
2021/10/29 02:20:49;;;;;;;0.40;0.20;;;;;;;7.73;95.74;100975.00;5074614;28;20816;-71
2021/10/29 02:23:16;;;;;;;0.40;0.30;;;;;;;7.73;95.47;100983.06;5074532;28;20445;-71
2021/10/29 02:25:45;;;;;;;0.50;0.30;;;;;;;7.62;95.27;100976.91;5074330;28;20449;-71
2021/10/29 02:28:12;;;;;;;0.40;0.30;;;;;;;7.57;95.41;100966.13;5074319;28;20473;-72
2021/10/29 02:30:40;;;;;;;0.40;0.20;;;;;;;7.60;95.16;100965.56;5074383;28;20448;-71
2021/10/29 02:33:06;;;;;;;0.50;0.47;;;;;;;7.53;95.62;100973.13;5074089;28;20967;-71
2021/10/29 02:35:33;;;;;;;0.40;0.30;;;;;;;7.50;95.84;100973.66;5073419;28;20485;-71
2021/10/29 02:37:59;;;;;;;0.40;0.30;;;;;;;7.50;95.54;100961.00;5074181;28;20479;-71
2021/10/29 02:40:26;;;;;;;0.40;0.30;;;;;;;7.50;95.70;100968.28;5074240;28;20437;-71
2021/10/29 02:42:52;;;;;;;2.23;2.10;;;;;;;7.51;95.76;100967.19;5074121;28;20452;-72
2021/10/29 02:45:19;;;;;;;0.40;0.30;;;;;;;7.45;95.99;100963.72;5073804;28;20946;-72
2021/10/29 02:47:48;;;;;;;0.40;0.30;;;;;;;7.37;95.68;100966.13;5073981;28;20550;-72
2021/10/29 02:50:14;;;;;;;0.90;0.90;;;;;;;7.39;96.35;100958.56;5073884;28;20449;-73
2021/10/29 02:52:41;;;;;;;0.40;0.30;;;;;;;7.42;96.25;100956.16;5073705;28;20970;-72
2021/10/29 02:55:08;;;;;;;0.40;0.30;;;;;;;7.38;97.28;100959.66;5073819;28;20524;-72
2021/10/29 02:57:36;;;;;;;0.40;0.30;;;;;;;7.40;97.63;100962.91;5073825;28;20466;-72
2021/10/29 03:00:04;;;;;;;2.63;2.53;;;;;;;7.40;97.91;100973.69;5073870;28;20473;-73
2021/10/29 03:02:30;;;;;;;0.87;0.87;;;;;;;7.42;98.16;100968.81;5073544;28;20911;-72
2021/10/29 03:04:58;;;;;;;0.40;0.30;;;;;;;7.39;98.60;100975.53;5073798;28;20858;-73
2021/10/29 03:07:25;;;;;;;0.40;0.30;;;;;;;7.36;98.27;100978.00;5073362;28;21024;-73
2021/10/29 03:09:51;;;;;;;0.40;0.30;;;;;;;7.35;98.52;100977.19;5073583;28;20528;-72
2021/10/29 03:12:18;;;;;;;0.40;0.23;;;;;;;7.36;98.10;100983.38;5073609;28;20522;-72
2021/10/29 03:14:45;;;;;;;0.40;0.30;;;;;;;7.31;98.01;100982.31;5073558;28;20481;-72
2021/10/29 03:17:11;;;;;;;13.87;9.40;;;;;;;7.33;97.51;100980.13;5073507;28;20461;-72
2021/10/29 03:19:38;;;;;;;0.40;0.30;;;;;;;7.27;97.06;100973.13;5073500;28;20430;-72
2021/10/29 03:22:06;;;;;;;0.40;0.30;;;;;;;7.27;97.15;100978.53;5073550;28;20445;-72
2021/10/29 03:24:33;;;;;;;0.50;0.30;;;;;;;7.29;96.93;100978.25;5073453;28;20467;-72
2021/10/29 03:26:59;;;;;;;0.40;0.30;;;;;;;7.14;95.99;100976.38;5073082;28;20998;-72
2021/10/29 03:29:26;;;;;;;0.40;0.30;;;;;;;7.07;96.21;100971.22;5073400;28;20452;-72
2021/10/29 03:31:53;;;;;;;0.40;0.30;;;;;;;7.04;96.37;100969.09;5073372;28;20445;-72
2021/10/29 03:34:19;;;;;;;0.40;0.30;;;;;;;7.00;95.87;100970.69;5072977;28;21009;-73
2021/10/29 03:36:46;;;;;;;0.40;0.30;;;;;;;6.98;96.53;100966.66;5073370;28;20556;-72
2021/10/29 03:39:16;;;;;;;0.50;0.40;;;;;;;6.97;96.56;100967.72;5073280;28;20485;-72
2021/10/29 03:41:49;;;;;;;0.40;0.30;;;;;;;6.96;96.30;100966.91;5073336;28;20438;-72
2021/10/29 03:44:21;;;;;;;0.40;0.30;;;;;;;6.86;97.09;100955.31;5073256;28;20461;-73
2021/10/29 03:46:48;;;;;;;0.50;0.47;;;;;;;6.79;97.95;100964.47;5073004;28;20564;-72
2021/10/29 03:49:19;;;;;;;0.40;0.30;;;;;;;6.82;98.77;100961.25;5073214;28;20449;-73
2021/10/29 03:51:49;;;;;;;0.40;0.30;;;;;;;6.90;98.36;100954.50;5072808;28;20559;-72
2021/10/29 03:54:21;;;;;;;0.40;0.30;;;;;;;6.90;98.33;100967.16;5073089;28;20483;-72
2021/10/29 03:56:56;;;;;;;8.43;4.63;;;;;;;6.94;98.06;100957.47;5073138;28;20469;-71
2021/10/29 03:59:22;;;;;;;0.40;0.30;;;;;;;7.00;98.34;100962.63;5074205;28;20942;-72
2021/10/29 04:01:49;;;;;;;3.23;2.93;;;;;;;7.00;98.08;100959.13;5072885;28;20437;-72
2021/10/29 04:04:15;;;;;;;0.40;0.30;;;;;;;7.00;98.08;100956.44;5073104;28;20478;-72
2021/10/29 04:06:42;;;;;;;1.13;1.07;;;;;;;6.91;98.17;100960.72;5072924;28;20468;-72
2021/10/29 04:09:08;;;;;;;0.40;0.27;;;;;;;6.91;98.38;100963.41;5072955;28;20441;-71
2021/10/29 04:11:38;;;;;;;0.40;0.30;;;;;;;6.92;97.99;100962.34;5072714;28;20464;-71
2021/10/29 04:14:07;;;;;;;0.40;0.30;;;;;;;6.89;97.69;100962.88;5072519;28;20477;-72
2021/10/29 04:16:36;;;;;;;0.40;0.30;;;;;;;6.91;97.89;100963.41;5072822;28;20493;-71
2021/10/29 04:19:03;;;;;;;0.40;0.30;;;;;;;6.92;98.02;100959.66;5072513;28;21021;-71
2021/10/29 04:21:29;;;;;;;1.70;1.60;;;;;;;6.83;97.90;100968.25;5072907;28;20445;-71
2021/10/29 04:23:56;;;;;;;0.50;0.50;;;;;;;6.80;96.54;100967.97;5072817;28;20450;-71
2021/10/29 04:26:23;;;;;;;0.40;0.30;;;;;;;6.72;96.75;100963.09;5072793;28;20466;-70
2021/10/29 04:28:54;;;;;;;0.40;0.30;;;;;;;6.66;96.97;100964.16;5072848;28;20441;-72
2021/10/29 04:31:23;;;;;;;0.40;0.30;;;;;;;6.57;96.38;100964.69;5072905;28;20495;-71
2021/10/29 04:33:50;;;;;;;1.70;1.60;;;;;;;6.63;95.82;100964.69;5072394;28;20858;-72
2021/10/29 04:36:17;;;;;;;0.40;0.30;;;;;;;6.56;96.08;100978.41;5072677;28;20473;-72
2021/10/29 04:38:43;;;;;;;0.40;0.30;;;;;;;6.53;95.18;100976.22;5072754;28;20510;-72
2021/10/29 04:41:09;;;;;;;0.40;0.30;;;;;;;6.48;95.70;100976.22;5072661;28;20444;-72
2021/10/29 04:43:38;;;;;;;0.40;0.30;;;;;;;6.50;96.05;100971.38;5072723;28;20803;-73
2021/10/29 04:46:06;;;;;;;0.40;0.30;;;;;;;6.46;96.32;100972.97;5072123;28;20946;-72
2021/10/29 04:48:32;;;;;;;0.40;0.23;;;;;;;6.45;96.60;100968.66;5072387;28;20437;-72
2021/10/29 04:50:59;;;;;;;1.17;1.17;;;;;;;6.49;97.42;100967.06;5072132;28;20460;-73
2021/10/29 04:53:26;;;;;;;0.40;0.20;;;;;;;6.50;97.89;100963.31;5072390;28;20441;-73
2021/10/29 04:55:53;;;;;;;3.83;3.50;;;;;;;6.50;98.93;100961.41;5072014;28;21047;-72
2021/10/29 04:58:20;;;;;;;0.50;0.30;;;;;;;6.53;98.52;100958.19;5072946;28;20512;-73
2021/10/29 05:00:47;;;;;;;0.70;0.53;;;;;;;6.55;99.13;100961.47;5076173;28;20437;-72
2021/10/29 05:03:15;;;;;;;0.40;0.30;;;;;;;6.59;99.70;100956.31;5076103;28;20445;-72
2021/10/29 05:05:41;;;;;;;0.40;0.20;;;;;;;6.56;100.00;100955.00;5076049;28;20436;-74
2021/10/29 05:08:08;;;;;;;0.40;0.30;;;;;;;6.66;99.81;100958.78;5075914;28;20491;-74
2021/10/29 05:10:35;;;;;;;0.40;0.30;;;;;;;6.65;99.16;100957.97;5076052;28;20473;-71
2021/10/29 05:13:01;;;;;;;0.40;0.30;;;;;;;6.58;99.12;100963.59;5075941;28;20448;-71
2021/10/29 05:15:28;;;;;;;0.40;0.30;;;;;;;6.61;98.66;100961.47;5075775;28;20489;-71
2021/10/29 05:17:55;;;;;;;0.40;0.30;;;;;;;6.55;98.82;100966.00;5075273;28;20978;-71
2021/10/29 05:20:23;;;;;;;1.20;1.07;;;;;;;6.52;98.85;100961.16;5075286;28;21020;-71
2021/10/29 05:22:50;;;;;;;0.40;0.30;;;;;;;6.54;98.78;100964.38;5075553;28;20818;-71
2021/10/29 05:25:16;;;;;;;0.40;0.20;;;;;;;6.49;98.33;100956.31;5064968;28;20477;-71
2021/10/29 05:27:43;;;;;;;0.40;0.30;;;;;;;6.46;98.23;100964.91;5055374;28;20466;-71
2021/10/29 05:30:10;;;;;;;0.40;0.30;;;;;;;6.39;98.18;100967.03;5055454;28;20442;-71
2021/10/29 05:32:38;;;;;;;0.40;0.30;;;;;;;6.39;98.36;100967.84;5055405;28;20445;-71
2021/10/29 05:35:06;;;;;;;0.40;0.30;;;;;;;6.38;98.12;100958.16;5055261;28;20490;-71
2021/10/29 05:37:36;;;;;;;0.40;0.30;;;;;;;6.38;98.17;100971.63;5055202;28;20470;-71
2021/10/29 05:40:04;;;;;;;0.40;0.30;;;;;;;6.43;98.34;100968.13;5054869;28;20943;-71
2021/10/29 05:42:31;;;;;;;0.40;0.30;;;;;;;6.46;99.48;100968.41;5054786;28;20990;-71
2021/10/29 05:44:57;;;;;;;0.40;0.30;;;;;;;6.45;100.00;100968.66;5055009;28;20446;-70
2021/10/29 05:47:23;;;;;;;0.40;0.30;;;;;;;6.41;99.92;100963.00;5055070;28;20512;-71
2021/10/29 05:49:50;;;;;;;0.40;0.30;;;;;;;6.38;99.44;100960.06;5054767;28;20453;-71
2021/10/29 05:52:18;;;;;;;0.40;0.30;;;;;;;6.42;98.97;100971.88;5071105;28;21060;-70
2021/10/29 05:55:12;;;;;;;2.77;2.57;;;;;;;6.44;98.68;100975.94;5074885;28;20481;-71
2021/10/29 05:57:40;;;;;;;0.50;0.40;;;;;;;6.51;99.13;100965.75;5074825;28;20556;-69
2021/10/29 06:00:07;;;;;;;0.40;0.30;;;;;;;6.54;100.00;100975.97;5074874;28;20437;-69
2021/10/29 06:02:34;;;;;;;0.97;0.97;;;;;;;6.57;100.00;100980.81;5074825;28;20816;-69
2021/10/29 06:05:00;;;;;;;0.40;0.30;;;;;;;6.59;100.00;100972.47;5074797;28;20441;-69
2021/10/29 06:07:27;;;;;;;0.40;0.30;;;;;;;6.61;100.00;100981.09;5074644;28;20468;-69
2021/10/29 06:09:54;;;;;;;3.33;3.03;;;;;;;6.67;100.00;100980.03;5074658;28;20445;-72
2021/10/29 06:12:21;;;;;;;0.40;0.30;;;;;;;6.66;100.00;100974.94;5074577;28;20436;-70
2021/10/29 06:14:48;;;;;;;0.40;0.27;;;;;;;6.71;100.00;100981.13;5074504;28;20485;-72
2021/10/29 06:17:17;;;;;;;0.40;0.30;;;;;;;6.69;100.00;100971.72;5074662;28;20497;-69
2021/10/29 06:19:44;;;;;;;0.40;0.30;;;;;;;6.74;100.00;100975.22;5074608;28;20429;-71
2021/10/29 06:22:14;;;;;;;0.40;0.30;;;;;;;6.76;100.00;100972.25;5074555;28;20445;-71
2021/10/29 06:24:41;;;;;;;0.40;0.30;;;;;;;6.71;99.41;100973.06;5074491;28;20426;-72
2021/10/29 06:28:08;;;;;;;0.73;0.70;;;;;;;6.71;98.58;100973.06;5067885;28;20486;-71
2021/10/29 06:29:56;;;;;;;0.40;0.30;;;;;;;6.66;98.81;100973.03;5054516;28;20438;-72
2021/10/29 06:32:22;;;;;;;0.40;0.30;;;;;;;6.65;98.25;100968.75;5054406;28;20450;-70
2021/10/29 06:34:49;;;;;;;0.40;0.30;;;;;;;6.70;98.46;100981.41;5054443;28;20530;-70
2021/10/29 06:37:17;;;;;;;0.50;0.40;;;;;;;6.74;98.94;100983.31;5054285;28;20470;-70
2021/10/29 06:39:45;;;;;;;0.40;0.30;;;;;;;6.71;98.53;100988.41;5054244;28;20450;-70
2021/10/29 06:42:16;;;;;;;1.37;1.27;;;;;;;6.72;98.42;100981.94;5054322;28;20524;-70
2021/10/29 06:44:50;;;;;;;0.40;0.30;;;;;;;6.74;99.02;100987.88;5054420;28;20435;-70
2021/10/29 06:47:35;;;;;;;0.40;0.30;;;;;;;6.74;100.00;100985.19;5053892;28;20845;-70
2021/10/29 07:01:02;;;;;;;0.40;0.20;;;;;;;7.01;100.00;100979.59;5053692;28;20425;-69
2021/10/29 07:03:52;;;;;;;0.40;0.30;;;;;;;7.04;100.00;100977.16;5053887;28;20507;-69
2021/10/29 07:12:09;;;;;;;0.40;0.30;;;;;;;7.19;100.00;100978.25;5053523;28;20448;-70
2021/10/29 07:41:59;;;;;;;0.40;0.30;;;;;;;7.55;98.91;101006.00;5053072;28;20410;-70
2021/10/29 07:44:28;;;;;;;0.40;0.30;;;;;;;7.61;98.91;101006.81;5053229;28;20450;-70
2021/10/29 07:46:56;;;;;;;0.40;0.30;;;;;;;7.66;99.22;101002.25;5053226;28;20562;-70
2021/10/29 07:49:27;;;;;;;0.40;0.30;;;;;;;7.73;98.61;101005.44;5052984;28;20795;-70
2021/10/29 07:51:54;;;;;;;0.40;0.30;;;;;;;7.78;97.76;101005.44;5052808;28;20484;-70
2021/10/29 07:54:20;;;;;;;0.40;0.30;;;;;;;7.82;97.67;101011.91;5053097;28;20442;-70
2021/10/29 07:56:47;;;;;;;0.40;0.30;;;;;;;7.83;97.98;101012.72;5052882;28;20486;-70
2021/10/29 07:59:13;;;;;;;0.50;0.50;;;;;;;7.88;97.72;101015.44;5053037;28;20449;-70
2021/10/29 08:01:40;;;;;;;0.40;0.30;;;;;;;7.92;97.23;101021.88;5052750;28;20452;-70
2021/10/29 08:04:08;;;;;;;3.00;2.83;;;;;;;7.99;96.99;101021.59;5052714;28;20940;-70
2021/10/29 08:06:34;;;;;;;1.90;1.80;;;;;;;8.03;96.87;101023.47;5052887;28;20512;-70
2021/10/29 08:09:02;;;;;;;0.40;0.30;;;;;;;8.10;96.51;101023.19;5052934;28;20442;-70
2021/10/29 08:11:29;;;;;;;0.40;0.30;;;;;;;8.12;96.63;101026.44;5052840;28;20549;-70
2021/10/29 08:13:55;;;;;;;0.40;0.30;;;;;;;8.20;96.59;101027.78;5052884;28;20434;-70
2021/10/29 08:16:23;;;;;;;0.40;0.40;;;;;;;8.25;96.42;101019.66;5052766;28;20493;-70
2021/10/29 08:18:49;;;;;;;1.37;1.27;;;;;;;8.25;95.20;101023.16;5052842;28;20441;-70
2021/10/29 08:21:17;;;;;;;0.40;0.30;;;;;;;8.31;95.21;101018.53;5052788;28;20446;-70
2021/10/29 08:23:44;;;;;;;0.40;0.27;;;;;;;8.38;94.87;101021.00;5052865;28;20446;-70
2021/10/29 08:26:12;;;;;;;0.40;0.30;;;;;;;8.43;94.29;101020.97;5052605;28;20462;-70
2021/10/29 08:28:39;;;;;;;0.40;0.20;;;;;;;8.47;94.38;101012.06;5052793;28;20492;-70
2021/10/29 08:31:06;;;;;;;0.40;0.30;;;;;;;8.49;93.95;101009.88;5052771;28;20529;-70
2021/10/29 08:33:32;;;;;;;0.40;0.30;;;;;;;8.55;93.94;101002.56;5053599;28;20437;-70
2021/10/29 08:35:58;;;;;;;1.03;1.03;;;;;;;8.64;94.17;101000.91;5056498;28;20486;-70
2021/10/29 08:38:26;;;;;;;0.40;0.30;;;;;;;8.68;94.21;101001.16;5056315;28;20958;-70
2021/10/29 08:40:54;;;;;;;0.80;0.80;;;;;;;8.75;93.74;100997.06;5056429;28;20442;-70
2021/10/29 08:43:21;;;;;;;0.40;0.30;;;;;;;8.79;92.85;100990.00;5056116;28;20963;-70
2021/10/29 08:45:48;;;;;;;2.20;2.00;;;;;;;8.80;93.25;100988.91;5056413;28;20441;-70
2021/10/29 08:48:15;;;;;;;1.20;1.17;;;;;;;8.89;93.47;100996.44;5056635;28;20454;-70
2021/10/29 08:50:41;;;;;;;0.50;0.50;;;;;;;8.94;93.77;100986.44;5056164;28;20458;-70
2021/10/29 08:53:08;;;;;;;0.40;0.30;;;;;;;9.00;93.16;100992.59;5056530;28;20426;-70
2021/10/29 08:55:37;;;;;;;0.40;0.30;;;;;;;9.07;92.65;100993.06;5056317;28;20850;-70
2021/10/29 08:58:06;;;;;;;0.40;0.27;;;;;;;9.09;91.90;100989.03;5056220;28;20476;-70
2021/10/29 09:00:37;;;;;;;0.93;0.93;;;;;;;9.17;91.50;100986.81;5056165;28;20450;-70
2021/10/29 09:03:06;;;;;;;0.40;0.30;;;;;;;9.19;91.90;100985.44;5056197;28;20430;-70
2021/10/29 09:05:39;;;;;;;0.97;0.93;;;;;;;9.29;91.37;100985.34;5056120;28;20489;-70
2021/10/29 09:08:12;;;;;;;0.40;0.30;;;;;;;9.34;90.92;100979.94;5055951;28;20509;-70
2021/10/29 09:11:22;;;;;;;0.40;0.30;;;;;;;9.41;89.38;100987.69;5056103;28;20446;-70
2021/10/29 09:31:28;;;;;;;0.40;0.30;;;;;;;10.13;88.68;100985.09;5062148;28;20495;-69
2021/10/29 09:33:57;;;;;;;0.40;0.30;;;;;;;10.24;87.83;100983.94;5075093;28;20418;-69
2021/10/29 09:36:28;;;;;;;0.50;0.30;;;;;;;10.34;87.61;100983.81;5074894;28;20564;-70
2021/10/29 09:38:56;;;;;;;0.40;0.30;;;;;;;10.40;87.56;100983.72;5074790;28;20487;-70
2021/10/29 09:41:23;;;;;;;0.40;0.30;;;;;;;10.41;87.11;100990.78;5074768;28;20445;-70
2021/10/29 09:43:55;;;;;;;0.40;0.30;;;;;;;10.49;87.07;100987.41;5074648;28;20445;-69
2021/10/29 09:46:33;;;;;;;0.40;0.30;;;;;;;10.52;86.73;100989.53;5074540;28;20552;-69
2021/10/29 09:49:10;;;;;;;0.40;0.30;;;;;;;10.62;86.35;100983.97;5074379;28;20875;-70
2021/10/29 09:51:48;;;;;;;0.40;0.30;;;;;;;10.70;86.58;100985.25;5074241;28;20539;-69
2021/10/29 09:54:16;;;;;;;0.40;0.30;;;;;;;10.82;86.40;100986.44;5074584;28;20429;-70
2021/10/29 09:56:47;;;;;;;0.40;0.30;;;;;;;10.92;86.70;100988.19;5074351;28;20493;-69
2021/10/29 09:59:15;;;;;;;0.40;0.30;;;;;;;10.98;86.45;100987.03;5074469;28;20487;-70
2021/10/29 10:01:42;;;;;;;0.40;0.30;;;;;;;11.04;85.74;100985.03;5074392;28;20832;-69
2021/10/29 10:04:09;;;;;;;0.40;0.30;;;;;;;11.19;83.67;100986.69;5074084;28;20969;-70
2021/10/29 10:06:41;;;;;;;0.40;0.30;;;;;;;11.36;82.61;100986.97;5073968;28;20837;-69
2021/10/29 10:09:09;;;;;;;0.40;0.30;;;;;;;11.46;82.30;100988.72;5074282;28;20418;-69
2021/10/29 10:11:37;;;;;;;0.40;0.20;;;;;;;11.58;82.58;100986.34;5074175;28;20441;-70
2021/10/29 10:14:04;;;;;;;0.40;0.30;;;;;;;11.67;81.79;100986.47;5073929;28;20865;-70
2021/10/29 10:16:34;;;;;;;0.50;0.50;;;;;;;11.68;81.08;100983.44;5073242;28;20998;-70
2021/10/29 10:19:00;;;;;;;0.40;0.30;;;;;;;11.77;81.85;100981.63;5073930;28;20438;-70
2021/10/29 10:21:34;;;;;;;0.40;0.30;;;;;;;11.85;81.75;100972.03;5073964;28;20437;-70
2021/10/29 10:24:05;;;;;;;0.50;0.50;;;;;;;12.01;80.54;100972.56;5073568;28;20433;-70
2021/10/29 10:26:50;;;;;;;0.40;0.30;;;;;;;12.16;79.89;100968.75;5073917;28;20466;-70
2021/10/29 10:29:48;;;;;;;0.50;0.30;;;;;;;12.31;78.63;100974.69;5073876;28;20433;-70
2021/10/29 10:43:39;;;;;;;0.40;0.27;;;;;;;13.19;77.10;100968.91;5073564;28;20472;-70
2021/10/29 10:46:13;;;;;;;0.40;0.30;;;;;;;13.32;75.92;100972.72;5073420;28;20539;-70
2021/10/29 10:48:46;;;;;;;0.40;0.30;;;;;;;13.46;74.00;100967.19;5073565;28;20469;-70
2021/10/29 10:51:37;;;;;;;0.40;0.30;;;;;;;13.57;73.36;100963.13;5073016;28;20462;-70
2021/10/29 10:54:10;;;;;;;1.23;1.13;;;;;;;13.69;72.67;100962.56;5073054;28;20957;-70
2021/10/29 10:59:53;;;;;;;0.40;0.30;;;;;;;14.04;71.97;100950.69;5037466;28;20863;-70
2021/10/29 11:02:55;;;;;;;0.40;0.30;;;;;;;14.48;69.00;100940.72;5053349;28;20525;-70
2021/10/29 11:05:36;;;;;;;0.40;0.30;;;;;;;15.14;66.74;100935.13;5053240;28;20469;-70
2021/10/29 11:11:18;;;;;;;0.50;0.50;;;;;;;15.48;66.24;100931.50;5072990;28;20429;-70
2021/10/29 11:13:53;;;;;;;0.77;0.77;;;;;;;15.75;65.14;100924.88;5073099;28;20440;-69
2021/10/29 11:16:27;;;;;;;0.40;0.30;;;;;;;16.32;62.85;100926.34;5072589;28;20485;-69
2021/10/29 11:18:56;;;;;;;0.40;0.30;;;;;;;17.00;60.98;100929.75;5073051;28;20429;-69
2021/10/29 11:21:34;;;;;;;0.40;0.30;;;;;;;18.19;56.88;100940.81;5072893;28;20446;-69
2021/10/29 11:24:04;;;;;;;0.40;0.30;;;;;;;18.89;54.15;100929.59;5072712;28;20516;-72
2021/10/29 11:26:33;;;;;;;0.40;0.23;;;;;;;19.89;50.68;100930.34;5072798;28;20453;-71
2021/10/29 11:29:02;;;;;;;0.40;0.30;;;;;;;20.38;49.65;100931.84;5072897;28;20453;-71
2021/10/29 11:31:31;;;;;;;0.40;0.30;;;;;;;21.29;48.58;100925.88;5072584;28;20526;-69
2021/10/29 11:34:00;;;;;;;0.40;0.30;;;;;;;22.27;46.05;100927.16;5072642;28;20448;-70
2021/10/29 11:36:31;;;;;;;0.40;0.30;;;;;;;23.04;44.64;100916.72;5072538;28;20510;-70
2021/10/29 11:38:57;;;;;;;0.40;0.30;;;;;;;23.67;43.34;100929.63;5072742;28;20526;-72
2021/10/29 11:41:26;;;;;;;0.40;0.23;;;;;;;24.21;42.64;100919.75;5072633;28;20444;-72
2021/10/29 11:43:58;;;;;;;0.40;0.30;;;;;;;24.79;40.73;100918.09;5072669;28;20444;-70
2021/10/29 11:46:25;;;;;;;0.40;0.30;;;;;;;25.29;39.22;100919.06;5072698;28;20457;-69
2021/10/29 11:49:01;;;;;;;0.40;0.30;;;;;;;25.73;39.27;100914.34;5072629;28;20449;-71
2021/10/29 11:51:30;;;;;;;0.40;0.27;;;;;;;25.94;38.64;100914.34;5072126;28;20984;-70
2021/10/29 11:54:01;;;;;;;0.40;0.30;;;;;;;26.32;36.73;100903.59;5072529;28;20448;-70
2021/10/29 11:56:35;;;;;;;0.40;0.30;;;;;;;26.61;37.16;100899.56;5072133;28;20990;-70
2021/10/29 11:59:26;;;;;;;0.40;0.30;;;;;;;26.60;35.71;100891.59;5072529;28;20491;-70
2021/10/29 12:02:03;;;;;;;0.40;0.30;;;;;;;26.46;36.58;100888.88;5072413;28;20426;-70
2021/10/29 12:07:18;;;;;;;0.40;0.30;;;;;;;27.11;35.49;100877.06;5074120;28;20908;-70
2021/10/29 12:09:46;;;;;;;0.40;0.30;;;;;;;27.17;35.52;100871.84;5076202;28;20549;-70
2021/10/29 12:12:14;;;;;;;0.40;0.30;;;;;;;26.96;35.33;100864.44;5076503;28;20469;-70
2021/10/29 12:14:44;;;;;;;0.40;0.30;;;;;;;27.00;35.26;100864.38;5076490;28;20460;-70
2021/10/29 12:17:15;;;;;;;0.40;0.30;;;;;;;26.94;35.45;100861.25;5076271;28;20492;-70
2021/10/29 12:19:45;;;;;;;0.40;0.30;;;;;;;27.15;35.00;100850.03;5076412;28;20525;-70
2021/10/29 12:22:24;;;;;;;0.40;0.30;;;;;;;27.42;35.15;100858.56;5076276;28;20499;-70
2021/10/29 12:24:56;;;;;;;0.40;0.30;;;;;;;27.37;34.61;100850.66;5076316;28;20468;-70
2021/10/29 12:27:28;;;;;;;0.40;0.30;;;;;;;27.17;35.09;100852.38;5076107;28;20532;-70
2021/10/29 12:30:17;;;;;;;0.83;0.83;;;;;;;27.24;34.46;100852.34;5076174;28;20429;-70
2021/10/29 12:38:34;;;;;;;0.50;0.47;;;;;;;27.32;34.95;100848.31;5075750;28;20977;-70
2021/10/29 12:53:06;;;;;;;0.40;0.30;;;;;;;27.31;34.10;100834.78;5075389;28;20412;-68
2021/10/29 13:04:02;;;;;;;0.40;0.30;;;;;;;26.82;35.16;100820.81;5069797;28;20445;-69
2021/10/29 13:06:33;;;;;;;0.40;0.30;;;;;;;26.63;36.54;100821.31;5075331;28;20457;-68
2021/10/29 13:09:02;;;;;;;0.40;0.30;;;;;;;26.38;35.44;100821.41;5075461;28;20437;-69
2021/10/29 13:11:36;;;;;;;0.40;0.30;;;;;;;26.04;36.64;100823.94;5075704;28;20935;-69
2021/10/29 13:14:06;;;;;;;0.40;0.30;;;;;;;25.49;36.58;100805.75;5075948;28;20473;-69
2021/10/29 13:16:33;;;;;;;0.73;0.67;;;;;;;24.83;37.73;100802.50;5075179;28;20574;-69
2021/10/29 13:24:58;;;;;;;0.40;0.30;;;;;;;21.96;43.21;100797.78;5075225;28;20409;-69
2021/10/29 13:28:00;;;;;;;0.40;0.30;;;;;;;20.99;44.97;100795.47;5075066;28;20465;-69
2021/10/29 13:52:37;;;;;;;0.40;0.30;;;;;;;16.30;59.56;100789.22;5074931;28;20967;-69
2021/10/29 13:55:20;;;;;;;0.80;0.80;;;;;;;16.14;61.62;100797.19;5075262;28;20433;-68
2021/10/29 13:58:05;;;;;;;0.40;0.30;;;;;;;15.89;62.64;100788.88;5056007;28;20497;-68